Am Qui, Tennessee
Current Conditions -  °F | °C
As of 11:53 AM on Saturday 25 Oct 2014 (Local Time) from KBNA Reporting Station
Few Clouds Few Clouds  
Wind Chill: 23°   Ceiling: Unl
Heat Index: 23°   Visibility: 10mi
Dew Point: 14°   Wind: 7mph
Humidity: 55%   Direction: 260°W
Pressure: 30.07"   Gusts: NA
Location:  36.2555°N, 86.6973°W
Report Text: KBNA 251653Z 26006KT 10SM FEW045 23/14 A3007 RMK AO2 SLP178 T02330139
Loading
Personal Weather Stations






























Interactive Weather Map
Tropical Storm Tracking
New forecast layout! Learn more

10-Day Weather Forecast

Advertisements
Track Severe Weather on mobile